createdAt,value
2018-12-31T00:02:10.025Z,100072.16
2018-12-31T00:04:20.863Z,100077.72
2018-12-31T00:06:31.679Z,100078.16
2018-12-31T00:08:42.503Z,100077.28
2018-12-31T00:10:53.372Z,100073.03
2018-12-31T00:13:04.150Z,100072.16
2018-12-31T00:15:14.974Z,100071.72
2018-12-31T00:17:25.880Z,100069.99
2018-12-31T00:19:36.637Z,100074.70
2018-12-31T00:21:47.430Z,100074.69
2018-12-31T00:23:58.235Z,100082.88
2018-12-31T00:26:09.058Z,100078.62
2018-12-31T00:28:19.878Z,100080.80
2018-12-31T00:30:30.713Z,100081.22
2018-12-31T00:32:41.572Z,100083.78
2018-12-31T00:34:52.360Z,100077.75
2018-12-31T00:37:03.176Z,100083.31
2018-12-31T00:39:13.977Z,100076.02
2018-12-31T00:41:24.783Z,100074.75
2018-12-31T00:43:35.615Z,100074.77
2018-12-31T00:45:46.456Z,100069.99
2018-12-31T00:47:57.277Z,100071.74
2018-12-31T00:50:08.090Z,100070.91
2018-12-31T00:52:18.929Z,100068.34
2018-12-31T00:54:29.722Z,100069.19
2018-12-31T00:56:40.653Z,100057.16
2018-12-31T00:58:51.504Z,100061.00
2018-12-31T01:01:02.400Z,100060.97
2018-12-31T01:03:13.235Z,100061.88
2018-12-31T01:05:24.067Z,100067.49
2018-12-31T01:07:34.916Z,100070.04
2018-12-31T01:12:18.219Z,100077.37
2018-12-31T01:14:29.029Z,100081.66
2018-12-31T01:16:39.822Z,100076.50
2018-12-31T01:18:50.648Z,100076.97
2018-12-31T01:21:01.453Z,100073.12
2018-12-31T01:23:12.279Z,100070.09
2018-12-31T01:25:23.065Z,100065.34
2018-12-31T01:27:33.877Z,100071.34
2018-12-31T01:29:44.687Z,100069.28
2018-12-31T01:31:55.521Z,100075.70
2018-12-31T01:34:06.434Z,100077.42
2018-12-31T01:36:17.240Z,100069.25
2018-12-31T01:38:28.088Z,100063.26
2018-12-31T01:40:38.897Z,100060.63
2018-12-31T01:42:49.715Z,100062.80
2018-12-31T01:45:00.532Z,100068.43
2018-12-31T01:47:11.342Z,100067.98
2018-12-31T01:49:22.173Z,100061.99
2018-12-31T01:51:32.999Z,100057.23
2018-12-31T01:53:43.819Z,100064.11
2018-12-31T01:55:54.621Z,100059.37
2018-12-31T01:58:05.428Z,100061.50
2018-12-31T02:00:16.250Z,100058.91
2018-12-31T02:02:27.048Z,100055.89
2018-12-31T02:04:37.869Z,100059.34
2018-12-31T02:06:48.707Z,100064.50
2018-12-31T02:08:59.540Z,100061.45
2018-12-31T02:11:10.342Z,100065.30
2018-12-31T02:13:21.130Z,100058.88
2018-12-31T02:15:31.976Z,100050.75
2018-12-31T02:17:42.767Z,100052.45
2018-12-31T02:19:53.588Z,100050.72
2018-12-31T02:22:04.391Z,100048.16
2018-12-31T02:24:15.209Z,100051.18
2018-12-31T02:26:26.039Z,100052.93
2018-12-31T02:28:36.853Z,100052.03
2018-12-31T02:30:47.672Z,100056.72
2018-12-31T02:32:58.487Z,100058.42
2018-12-31T02:35:09.296Z,100051.55
2018-12-31T02:37:20.200Z,100050.69
2018-12-31T02:39:31.000Z,100046.80
2018-12-31T02:41:41.812Z,100055.84
2018-12-31T02:43:52.629Z,100061.05
2018-12-31T02:46:03.471Z,100061.05
2018-12-31T02:48:14.373Z,100059.77
2018-12-31T02:50:25.181Z,100052.03
2018-12-31T02:52:35.988Z,100054.63
2018-12-31T02:54:46.787Z,100052.49
2018-12-31T02:56:57.601Z,100052.91
2018-12-31T02:59:08.404Z,100053.34
2018-12-31T03:01:19.222Z,100044.34
2018-12-31T03:03:30.021Z,100043.97
2018-12-31T03:05:40.837Z,100048.23
2018-12-31T03:07:51.676Z,100043.52
2018-12-31T03:10:44.153Z,100042.23
2018-12-31T03:12:55.055Z,100041.39
2018-12-31T03:15:05.858Z,100040.53
2018-12-31T03:17:16.679Z,100041.02
2018-12-31T03:19:27.457Z,100034.97
2018-12-31T03:21:38.269Z,100033.66
2018-12-31T03:23:49.074Z,100032.34
2018-12-31T03:25:59.902Z,100027.60
2018-12-31T03:28:10.715Z,100034.51
2018-12-31T03:30:21.514Z,100031.08
2018-12-31T03:32:32.336Z,100036.23
2018-12-31T03:34:43.183Z,100035.36
2018-12-31T03:36:53.977Z,100034.48
2018-12-31T03:39:04.890Z,100032.73
2018-12-31T03:41:15.697Z,100027.17
2018-12-31T03:43:26.510Z,100025.00
2018-12-31T03:45:37.303Z,100026.70
2018-12-31T03:47:48.119Z,100024.16
2018-12-31T03:49:58.908Z,100023.69
2018-12-31T03:52:09.709Z,100023.72
2018-12-31T03:54:20.533Z,100026.73
2018-12-31T03:56:31.335Z,100026.76
2018-12-31T03:58:42.143Z,100028.48
2018-12-31T04:00:52.976Z,100025.42
2018-12-31T04:03:03.774Z,100024.13
2018-12-31T04:05:14.588Z,100022.41
2018-12-31T04:07:25.523Z,100016.84
2018-12-31T04:09:36.522Z,100009.98
2018-12-31T04:11:47.361Z,100006.97
2018-12-31T04:13:58.167Z,100008.27
2018-12-31T04:16:08.953Z,100010.84
2018-12-31T04:18:19.801Z,100008.67
2018-12-31T04:20:30.622Z,100004.40
2018-12-31T04:22:41.445Z,100004.40
2018-12-31T04:24:52.266Z,99997.08
2018-12-31T04:27:03.165Z,99991.95
2018-12-31T04:29:13.969Z,99994.48
2018-12-31T04:31:24.815Z,99991.05
2018-12-31T04:33:35.621Z,99993.61
2018-12-31T04:35:46.438Z,99991.48
2018-12-31T04:37:57.236Z,99988.92
2018-12-31T04:40:08.121Z,99979.05
2018-12-31T04:42:18.851Z,99981.22
2018-12-31T04:44:29.656Z,99985.52
2018-12-31T04:46:40.488Z,99978.61
2018-12-31T04:48:51.301Z,99980.78
2018-12-31T04:51:02.130Z,99979.55
2018-12-31T04:53:12.927Z,99982.12
2018-12-31T04:55:23.738Z,99984.23
2018-12-31T04:57:34.648Z,99983.80
2018-12-31T04:59:45.437Z,99979.48
2018-12-31T05:01:56.254Z,99974.33
2018-12-31T05:04:07.080Z,99978.25
2018-12-31T05:06:17.907Z,99973.48
2018-12-31T05:08:28.727Z,99971.32
2018-12-31T05:10:39.637Z,99973.48
2018-12-31T05:12:50.447Z,99975.63
2018-12-31T05:15:01.245Z,99976.44
2018-12-31T05:17:12.076Z,99979.02
2018-12-31T05:19:22.882Z,99985.92
2018-12-31T05:21:33.688Z,99976.94
2018-12-31T05:23:44.506Z,99991.84
2018-12-31T05:25:55.322Z,99993.08
2018-12-31T05:28:06.136Z,99990.91
2018-12-31T05:30:16.924Z,99993.05
2018-12-31T05:32:27.746Z,99997.30
2018-12-31T05:34:38.557Z,99999.88
2018-12-31T05:36:49.408Z,100003.30
2018-12-31T05:39:00.212Z,100012.27
2018-12-31T05:41:10.996Z,100008.41
2018-12-31T05:43:21.848Z,100009.69
2018-12-31T05:45:32.730Z,100019.16
2018-12-31T05:47:43.554Z,100022.58
2018-12-31T05:49:54.387Z,100020.85
2018-12-31T05:52:05.185Z,100029.41
2018-12-31T05:54:16.021Z,100028.56
2018-12-31T05:56:26.823Z,100030.23
2018-12-31T05:58:37.693Z,100031.95
2018-12-31T06:00:48.531Z,100029.32
2018-12-31T06:02:59.365Z,100026.71
2018-12-31T06:05:10.220Z,100030.61
2018-12-31T06:07:21.027Z,100038.34
2018-12-31T06:09:31.846Z,100035.77
2018-12-31T06:11:42.634Z,100037.02
2018-12-31T06:13:53.453Z,100043.94
2018-12-31T06:16:04.260Z,100039.66
2018-12-31T06:18:15.059Z,100039.63
2018-12-31T06:20:25.894Z,100040.08
2018-12-31T06:22:36.710Z,100041.36
2018-12-31T06:24:47.519Z,100041.80
2018-12-31T06:26:58.313Z,100047.80
2018-12-31T06:29:09.101Z,100042.62
2018-12-31T06:31:19.942Z,100047.78
2018-12-31T06:33:30.785Z,100059.38
2018-12-31T06:38:20.912Z,100054.69
2018-12-31T06:40:31.732Z,100057.27
2018-12-31T06:42:42.513Z,100059.84
2018-12-31T06:44:53.323Z,100058.59
2018-12-31T06:47:04.146Z,100054.28
2018-12-31T06:49:14.956Z,100048.71
2018-12-31T06:51:25.783Z,100056.85
2018-12-31T06:53:36.589Z,100060.72
2018-12-31T06:55:47.392Z,100064.09
2018-12-31T06:57:58.228Z,100066.67
2018-12-31T07:00:09.154Z,100067.52
2018-12-31T07:02:19.967Z,100059.81
2018-12-31T07:04:30.762Z,100058.50
2018-12-31T07:07:23.224Z,100064.48
2018-12-31T07:09:34.097Z,100067.50
2018-12-31T07:11:44.951Z,100064.09
2018-12-31T07:13:55.745Z,100062.81
2018-12-31T07:16:06.558Z,100067.52
2018-12-31T07:18:17.390Z,100064.06
2018-12-31T07:20:28.198Z,100070.52
2018-12-31T07:22:39.153Z,100072.18
2018-12-31T07:24:49.954Z,100072.62
2018-12-31T07:27:00.785Z,100073.85
2018-12-31T07:29:11.610Z,100078.16
2018-12-31T07:31:22.474Z,100075.20
2018-12-31T07:33:33.236Z,100084.14
2018-12-31T07:35:44.104Z,100094.42
2018-12-31T07:37:54.955Z,100091.37
2018-12-31T07:40:05.756Z,100088.36
2018-12-31T07:42:16.583Z,100094.81
2018-12-31T07:44:27.378Z,100090.09
2018-12-31T07:46:38.188Z,100090.50
2018-12-31T07:48:49.007Z,100098.61
2018-12-31T07:50:59.840Z,100099.50
2018-12-31T07:53:10.671Z,100100.78
2018-12-31T07:55:21.501Z,100099.91
2018-12-31T07:57:32.321Z,100097.27
2018-12-31T07:59:43.116Z,100105.89
2018-12-31T08:01:53.942Z,100102.42
2018-12-31T08:04:04.773Z,100105.42
2018-12-31T08:06:15.579Z,100108.88
2018-12-31T08:08:26.440Z,100102.87
2018-12-31T08:10:37.239Z,100109.28
2018-12-31T08:12:48.069Z,100104.59
2018-12-31T08:14:58.901Z,100103.75
2018-12-31T08:17:09.697Z,100107.20
2018-12-31T08:19:20.514Z,100103.77
2018-12-31T08:21:31.312Z,100111.89
2018-12-31T08:23:42.148Z,100106.73
2018-12-31T08:25:53.001Z,100109.25
2018-12-31T08:28:03.865Z,100109.25
2018-12-31T08:30:14.698Z,100115.23
2018-12-31T08:32:25.494Z,100118.22
2018-12-31T08:34:36.356Z,100122.94
2018-12-31T08:36:47.131Z,100115.20
2018-12-31T08:38:57.941Z,100122.06
2018-12-31T08:41:08.772Z,100122.50
2018-12-31T08:43:19.663Z,100128.92
2018-12-31T08:45:30.501Z,100130.62
2018-12-31T08:47:41.304Z,100127.57
2018-12-31T08:49:52.136Z,100130.22
2018-12-31T08:52:22.829Z,100129.77
2018-12-31T08:54:33.636Z,100129.77
2018-12-31T08:56:44.502Z,100130.62
2018-12-31T08:58:55.297Z,100128.05
2018-12-31T09:01:06.144Z,100130.56
2018-12-31T09:03:16.962Z,100129.17
2018-12-31T09:05:27.906Z,100129.62
2018-12-31T09:07:38.723Z,100127.03
2018-12-31T09:09:49.516Z,100128.80
2018-12-31T09:12:00.338Z,100128.36
2018-12-31T09:14:11.135Z,100128.77
2018-12-31T09:16:21.964Z,100130.50
2018-12-31T09:18:32.764Z,100138.24
2018-12-31T09:20:43.612Z,100133.89
2018-12-31T09:23:01.891Z,100134.34
2018-12-31T09:25:12.699Z,100127.88
2018-12-31T09:27:23.515Z,100118.00
2018-12-31T09:29:34.351Z,100110.27
2018-12-31T09:31:45.180Z,100103.78
2018-12-31T09:33:56.015Z,100102.08
2018-12-31T09:36:06.816Z,100103.34
2018-12-31T09:38:17.661Z,100106.83
2018-12-31T09:40:28.482Z,100110.67
2018-12-31T09:42:39.319Z,100108.09
2018-12-31T09:44:50.157Z,100105.92
2018-12-31T09:47:00.969Z,100098.14
2018-12-31T09:49:11.789Z,100097.22
2018-12-31T09:51:22.591Z,100106.70
2018-12-31T09:53:33.430Z,100107.61
2018-12-31T09:55:44.276Z,100107.98
2018-12-31T09:57:55.067Z,100114.00
2018-12-31T10:00:47.584Z,100114.88
2018-12-31T10:02:58.402Z,100116.14
2018-12-31T10:05:09.226Z,100112.73
2018-12-31T10:07:20.077Z,100109.98
2018-12-31T10:09:30.910Z,100108.37
2018-12-31T10:11:41.710Z,100112.77
2018-12-31T10:13:52.522Z,100110.66
2018-12-31T10:16:03.371Z,100116.67
2018-12-31T10:18:14.204Z,100110.73
2018-12-31T10:20:25.042Z,100109.92
2018-12-31T10:22:35.854Z,100110.33
2018-12-31T10:24:46.682Z,100105.94
2018-12-31T10:26:57.503Z,100099.11
2018-12-31T10:29:08.335Z,100097.86
2018-12-31T10:31:19.159Z,100091.84
2018-12-31T10:33:30.068Z,100093.62
2018-12-31T10:35:40.906Z,100096.12
2018-12-31T10:37:51.715Z,100101.29
2018-12-31T10:40:24.310Z,100102.98
2018-12-31T10:42:35.134Z,100104.28
2018-12-31T10:45:07.732Z,100105.61
2018-12-31T10:47:18.560Z,100104.28
2018-12-31T10:49:29.378Z,100101.25
2018-12-31T10:51:40.310Z,100105.61
2018-12-31T10:53:51.103Z,100103.88
2018-12-31T10:56:01.932Z,100107.70
2018-12-31T10:58:12.729Z,100108.19
2018-12-31T11:00:23.562Z,100104.31
2018-12-31T11:02:34.391Z,100100.41
2018-12-31T11:04:45.190Z,100093.03
2018-12-31T11:06:56.111Z,100091.81
2018-12-31T11:09:06.945Z,100099.59
2018-12-31T11:11:17.821Z,100092.22
2018-12-31T11:13:28.606Z,100087.94
2018-12-31T11:15:39.454Z,100090.00
2018-12-31T11:17:50.291Z,100085.73
2018-12-31T11:20:01.192Z,100083.99
2018-12-31T11:22:12.014Z,100083.95
2018-12-31T11:24:22.798Z,100081.78
2018-12-31T11:26:33.629Z,100085.16
2018-12-31T11:28:44.470Z,100086.50
2018-12-31T11:30:55.305Z,100080.08
2018-12-31T11:33:06.147Z,100085.17
2018-12-31T11:35:16.965Z,100080.81
2018-12-31T11:37:34.421Z,100080.41
2018-12-31T11:39:40.498Z,100073.88
2018-12-31T11:41:51.332Z,100068.75
2018-12-31T11:44:02.148Z,100068.75
2018-12-31T11:46:12.953Z,100064.88
2018-12-31T11:48:23.783Z,100060.56
2018-12-31T11:50:34.796Z,100060.91
2018-12-31T11:52:45.559Z,100057.84
2018-12-31T11:54:56.404Z,100054.91
2018-12-31T11:57:07.264Z,100050.59
2018-12-31T11:59:18.105Z,100051.88
2018-12-31T12:04:01.392Z,100051.39
2018-12-31T12:06:12.187Z,100043.20
2018-12-31T12:08:42.926Z,100035.05
2018-12-31T12:10:54.074Z,100035.45
2018-12-31T12:13:04.884Z,100031.53
2018-12-31T12:15:15.724Z,100034.97
2018-12-31T12:17:26.533Z,100034.11
2018-12-31T12:19:37.347Z,100033.27
2018-12-31T12:21:48.151Z,100025.48
2018-12-31T12:23:58.945Z,100023.30
2018-12-31T12:26:09.797Z,100017.28
2018-12-31T12:28:20.600Z,100022.45
2018-12-31T12:30:31.434Z,100014.58
2018-12-31T12:32:42.229Z,100012.44
2018-12-31T12:34:53.101Z,100005.52
2018-12-31T12:37:04.023Z,100007.63
2018-12-31T12:39:14.917Z,100010.64
2018-12-31T12:41:25.869Z,100011.45
2018-12-31T12:43:36.991Z,100016.61
2018-12-31T12:45:47.848Z,100018.27
2018-12-31T12:47:58.659Z,100016.97
2018-12-31T12:50:09.493Z,100021.16
2018-12-31T12:52:20.307Z,100019.91
2018-12-31T12:54:31.154Z,100021.59
2018-12-31T12:56:41.977Z,100019.81
2018-12-31T12:58:53.046Z,100019.81
2018-12-31T13:01:03.862Z,100019.77
2018-12-31T13:03:14.667Z,100018.88
2018-12-31T13:05:25.502Z,100018.92
2018-12-31T13:07:36.359Z,100020.97
2018-12-31T13:09:47.179Z,100020.97
2018-12-31T13:11:57.992Z,100019.77
2018-12-31T13:14:08.900Z,100024.05
2018-12-31T13:16:20.039Z,100017.54
2018-12-31T13:18:30.968Z,100015.35
2018-12-31T13:21:01.671Z,100009.73
2018-12-31T13:23:12.527Z,100009.73
2018-12-31T13:25:25.234Z,100016.11
2018-12-31T13:27:37.976Z,100019.14
2018-12-31T13:29:48.807Z,100024.30
2018-12-31T13:31:59.641Z,100024.70
2018-12-31T13:34:10.439Z,100022.95
2018-12-31T13:36:21.267Z,100025.14
2018-12-31T13:38:32.113Z,100029.02
2018-12-31T13:40:42.918Z,100030.71
2018-12-31T13:42:53.743Z,100019.17
2018-12-31T13:45:04.669Z,100022.20
2018-12-31T13:47:15.512Z,100020.43
2018-12-31T13:49:26.328Z,100026.00
2018-12-31T13:51:37.171Z,100027.33
2018-12-31T13:53:48.010Z,100029.88
2018-12-31T13:55:58.824Z,100030.77
2018-12-31T13:58:09.664Z,100032.06
2018-12-31T14:00:22.432Z,100026.88
2018-12-31T14:02:33.452Z,100029.92
2018-12-31T14:04:44.268Z,100032.55
2018-12-31T14:06:55.063Z,100029.96
2018-12-31T14:09:05.900Z,100037.23
2018-12-31T14:11:18.095Z,100032.45
2018-12-31T14:13:29.449Z,100029.91
2018-12-31T14:15:40.242Z,100029.92
2018-12-31T14:17:51.108Z,100035.89
2018-12-31T14:22:54.283Z,100040.25
2018-12-31T14:25:05.217Z,100035.18
2018-12-31T14:27:16.038Z,100042.49
2018-12-31T14:29:26.891Z,100040.80
2018-12-31T14:31:37.692Z,100039.95
2018-12-31T14:33:48.522Z,100037.42
2018-12-31T14:35:59.379Z,100044.73
2018-12-31T14:38:10.301Z,100048.11
2018-12-31T14:40:21.145Z,100053.28
2018-12-31T14:42:31.945Z,100050.28
2018-12-31T14:44:42.785Z,100057.11
2018-12-31T14:46:53.614Z,100054.56
2018-12-31T14:49:04.448Z,100058.00
2018-12-31T14:51:15.392Z,100058.89
2018-12-31T14:53:26.185Z,100064.51
2018-12-31T14:55:37.365Z,100065.04
2018-12-31T14:57:48.198Z,100067.98
2018-12-31T14:59:59.038Z,100068.88
2018-12-31T15:02:09.896Z,100071.45
2018-12-31T15:04:20.713Z,100073.16
2018-12-31T15:06:31.558Z,100079.17
2018-12-31T15:08:42.369Z,100076.14
2018-12-31T15:10:53.190Z,100074.84
2018-12-31T15:13:04.025Z,100077.84
2018-12-31T15:15:14.832Z,100071.81
2018-12-31T15:17:25.665Z,100080.86
2018-12-31T15:19:36.517Z,100082.20
2018-12-31T15:21:47.332Z,100079.20
2018-12-31T15:23:58.157Z,100083.94
2018-12-31T15:26:09.002Z,100084.78
2018-12-31T15:28:20.138Z,100086.96
2018-12-31T15:30:30.952Z,100080.06
2018-12-31T15:32:41.885Z,100080.06
2018-12-31T15:34:52.684Z,100078.81
2018-12-31T15:37:03.531Z,100078.81
2018-12-31T15:39:14.416Z,100070.61
2018-12-31T15:41:25.239Z,100074.04
2018-12-31T15:43:36.087Z,100075.74
2018-12-31T15:45:46.923Z,100081.80
2018-12-31T15:47:57.766Z,100082.64
2018-12-31T15:50:08.587Z,100090.84
2018-12-31T15:52:19.396Z,100091.25
2018-12-31T15:54:30.232Z,100094.64
2018-12-31T15:56:41.045Z,100099.36
2018-12-31T15:58:52.183Z,100099.80
2018-12-31T16:01:03.026Z,100105.82
2018-12-31T16:03:26.953Z,100108.85
2018-12-31T16:05:38.127Z,100108.85
2018-12-31T16:07:49.131Z,100111.39
2018-12-31T16:10:00.015Z,100105.86
2018-12-31T16:12:10.895Z,100110.14
2018-12-31T16:14:21.714Z,100112.33
2018-12-31T16:16:32.614Z,100112.73
2018-12-31T16:18:43.506Z,100105.86
2018-12-31T16:20:54.299Z,100103.69
2018-12-31T16:23:05.119Z,100102.39
2018-12-31T16:25:16.048Z,100108.00
2018-12-31T16:27:26.868Z,100107.96
2018-12-31T16:29:37.729Z,100106.70
2018-12-31T16:31:48.546Z,100106.70
2018-12-31T16:33:59.368Z,100104.52
2018-12-31T16:36:12.159Z,100112.28
2018-12-31T16:38:23.192Z,100114.45
2018-12-31T16:40:34.012Z,100111.87
2018-12-31T16:42:44.926Z,100104.57
2018-12-31T16:44:55.763Z,100101.14
2018-12-31T16:47:06.577Z,100098.19
2018-12-31T16:49:17.418Z,100101.23
2018-12-31T16:51:28.213Z,100098.19
2018-12-31T16:53:39.031Z,100099.00
2018-12-31T16:55:49.961Z,100096.05
2018-12-31T16:58:00.804Z,100098.64
2018-12-31T17:00:11.699Z,100096.09
2018-12-31T17:02:22.536Z,100101.23
2018-12-31T17:04:33.389Z,100097.75
2018-12-31T17:06:44.170Z,100098.16
2018-12-31T17:08:55.293Z,100094.72
2018-12-31T17:11:06.151Z,100102.08
2018-12-31T17:13:16.963Z,100103.80
2018-12-31T17:15:27.766Z,100104.25
2018-12-31T17:17:38.678Z,100105.15
2018-12-31T17:19:49.476Z,100116.33
2018-12-31T17:22:00.502Z,100120.25
2018-12-31T17:24:11.300Z,100115.48
2018-12-31T17:26:22.111Z,100109.47
2018-12-31T17:28:32.936Z,100114.63
2018-12-31T17:30:43.785Z,100114.64
2018-12-31T17:32:54.583Z,100120.25
2018-12-31T17:35:05.402Z,100120.65
2018-12-31T17:37:18.115Z,100122.39
2018-12-31T17:39:29.248Z,100116.81
2018-12-31T17:41:40.080Z,100119.84
2018-12-31T17:43:50.872Z,100117.22
2018-12-31T17:46:01.693Z,100112.89
2018-12-31T17:48:12.509Z,100112.05
2018-12-31T17:50:23.392Z,100113.34
2018-12-31T17:52:34.247Z,100113.34
2018-12-31T17:54:45.063Z,100117.66
2018-12-31T17:56:55.890Z,100124.97
2018-12-31T17:59:06.765Z,100127.55
2018-12-31T18:01:17.559Z,100122.83
2018-12-31T18:03:28.398Z,100125.83
2018-12-31T18:05:39.225Z,100125.83
2018-12-31T18:07:50.262Z,100121.53
2018-12-31T18:10:44.628Z,100118.95
2018-12-31T18:12:55.459Z,100124.97
2018-12-31T18:15:06.279Z,100122.88
2018-12-31T18:17:17.083Z,100128.04
2018-12-31T18:19:27.900Z,100131.87
2018-12-31T18:21:38.693Z,100124.61
2018-12-31T18:23:49.542Z,100125.02
2018-12-31T18:26:00.360Z,100124.17
2018-12-31T18:28:11.156Z,100115.16
2018-12-31T18:30:23.886Z,100119.48
2018-12-31T18:32:34.707Z,100125.98
2018-12-31T18:34:45.524Z,100122.55
2018-12-31T18:36:56.316Z,100121.66
2018-12-31T18:39:07.256Z,100119.97
2018-12-31T18:41:18.075Z,100119.16
2018-12-31T18:43:28.859Z,100123.84
2018-12-31T18:45:39.679Z,100118.23
2018-12-31T18:47:50.486Z,100125.13
2018-12-31T18:50:01.302Z,100131.11
2018-12-31T18:52:12.109Z,100135.03
2018-12-31T18:54:22.956Z,100129.86
2018-12-31T18:56:33.797Z,100139.79
2018-12-31T18:58:46.429Z,100140.20
2018-12-31T19:00:57.354Z,100139.75
2018-12-31T19:03:08.386Z,100140.16
2018-12-31T19:05:19.209Z,100142.73
2018-12-31T19:07:30.014Z,100142.26
2018-12-31T19:09:40.831Z,100139.23
2018-12-31T19:11:51.643Z,100141.44
2018-12-31T19:14:03.932Z,100136.31
2018-12-31T19:16:15.174Z,100135.47
2018-12-31T19:18:25.973Z,100138.94
2018-12-31T19:20:36.873Z,100130.34
2018-12-31T19:22:47.735Z,100131.63
2018-12-31T19:24:58.535Z,100132.52
2018-12-31T19:27:09.409Z,100129.49
2018-12-31T19:29:20.223Z,100127.35
2018-12-31T19:31:32.970Z,100134.26
2018-12-31T19:33:45.681Z,100133.85
2018-12-31T19:35:56.483Z,100136.00
2018-12-31T19:38:07.308Z,100132.97
2018-12-31T19:40:18.098Z,100130.83
2018-12-31T19:42:29.027Z,100135.95
2018-12-31T19:44:39.861Z,100140.72
2018-12-31T19:46:50.663Z,100146.73
2018-12-31T19:51:18.536Z,100137.25
2018-12-31T19:53:29.380Z,100134.22
2018-12-31T19:55:40.187Z,100142.37
2018-12-31T19:57:51.050Z,100130.75
2018-12-31T20:00:43.529Z,100146.25
2018-12-31T20:02:54.382Z,100147.09
2018-12-31T20:05:05.308Z,100146.29
2018-12-31T20:07:16.117Z,100132.92
2018-12-31T20:09:26.976Z,100124.29
2018-12-31T20:11:37.791Z,100119.16
2018-12-31T20:13:48.632Z,100112.30
2018-12-31T20:15:59.442Z,100111.81
2018-12-31T20:18:10.282Z,100102.81
2018-12-31T20:20:21.090Z,100104.55
2018-12-31T20:22:31.943Z,100099.06
2018-12-31T20:24:44.677Z,100097.80
2018-12-31T20:26:57.389Z,100100.39
2018-12-31T20:29:08.184Z,100105.95
2018-12-31T20:31:19.000Z,100107.66
2018-12-31T20:34:11.475Z,100103.33
2018-12-31T20:36:22.316Z,100104.22
2018-12-31T20:38:33.125Z,100103.38
2018-12-31T20:40:43.966Z,100107.25
2018-12-31T20:42:56.709Z,100109.80
2018-12-31T20:45:07.613Z,100104.63
2018-12-31T20:47:18.429Z,100107.66
2018-12-31T20:49:29.231Z,100105.47
2018-12-31T20:51:40.067Z,100097.69
2018-12-31T20:53:50.908Z,100102.41
2018-12-31T20:56:01.819Z,100101.52
2018-12-31T20:58:12.635Z,100106.20
2018-12-31T21:00:23.440Z,100104.91
2018-12-31T21:02:34.262Z,100101.48
2018-12-31T21:04:45.160Z,100104.50
2018-12-31T21:06:55.997Z,100098.93
2018-12-31T21:09:07.024Z,100090.78
2018-12-31T21:11:19.770Z,100089.94
2018-12-31T21:13:30.601Z,100089.97
2018-12-31T21:15:41.450Z,100087.84
2018-12-31T21:17:52.274Z,100085.66
2018-12-31T21:20:44.720Z,100086.46
2018-12-31T21:22:55.559Z,100073.99
2018-12-31T21:25:06.551Z,100080.57
2018-12-31T21:27:17.431Z,100081.42
2018-12-31T21:29:30.245Z,100072.02
2018-12-31T21:31:41.139Z,100070.32
2018-12-31T21:33:51.955Z,100074.69
2018-12-31T21:36:02.856Z,100073.91
2018-12-31T21:38:13.678Z,100072.17
2018-12-31T21:40:24.531Z,100073.03
2018-12-31T21:42:35.364Z,100079.00
2018-12-31T21:44:46.186Z,100072.05
2018-12-31T21:46:56.989Z,100073.75
2018-12-31T21:49:07.836Z,100080.17
2018-12-31T21:51:18.661Z,100079.72
2018-12-31T21:53:29.500Z,100075.77
2018-12-31T21:55:40.299Z,100079.23
2018-12-31T21:57:51.333Z,100083.11
2018-12-31T22:00:43.828Z,100081.84
2018-12-31T22:02:57.220Z,100076.94
2018-12-31T22:05:07.486Z,100076.62
2018-12-31T22:09:50.728Z,100072.84
2018-12-31T22:12:01.529Z,100076.36
2018-12-31T22:14:12.351Z,100077.69
2018-12-31T22:16:23.147Z,100072.48
2018-12-31T22:18:33.997Z,100075.51
2018-12-31T22:20:44.844Z,100071.63
2018-12-31T22:22:55.672Z,100071.64
2018-12-31T22:25:06.605Z,100078.55
2018-12-31T22:27:19.321Z,100072.16
2018-12-31T22:29:32.042Z,100078.19
2018-12-31T22:31:42.883Z,100070.06
2018-12-31T22:33:53.698Z,100066.59
2018-12-31T22:36:04.557Z,100070.92
2018-12-31T22:38:15.347Z,100070.07
2018-12-31T22:40:26.172Z,100068.16
2018-12-31T22:42:37.107Z,100067.27
2018-12-31T22:44:47.951Z,100067.67
2018-12-31T22:46:58.771Z,100067.31
2018-12-31T22:49:09.557Z,100072.08
2018-12-31T22:51:20.535Z,100064.95
2018-12-31T22:53:31.390Z,100081.30
2018-12-31T22:55:42.202Z,100077.02
2018-12-31T22:57:52.990Z,100074.43
2018-12-31T23:00:47.381Z,100068.38
2018-12-31T23:02:58.193Z,100067.09
2018-12-31T23:05:09.278Z,100066.72
2018-12-31T23:07:20.107Z,100071.49
2018-12-31T23:09:30.941Z,100068.05
2018-12-31T23:11:41.793Z,100073.22
2018-12-31T23:13:52.582Z,100076.61
2018-12-31T23:16:03.404Z,100072.78
2018-12-31T23:18:14.205Z,100072.34
2018-12-31T23:20:26.934Z,100069.75
2018-12-31T23:22:39.662Z,100075.36
2018-12-31T23:24:50.478Z,100067.21
2018-12-31T23:27:01.410Z,100071.53
2018-12-31T23:29:12.319Z,100068.47
2018-12-31T23:31:23.153Z,100071.89
2018-12-31T23:33:33.971Z,100068.47
2018-12-31T23:35:44.787Z,100071.53
2018-12-31T23:37:55.603Z,100066.81
2018-12-31T23:40:48.073Z,100068.99
2018-12-31T23:43:06.165Z,100059.51
2018-12-31T23:45:11.611Z,100063.83
2018-12-31T23:47:22.483Z,100066.45
2018-12-31T23:49:33.307Z,100058.30
2018-12-31T23:51:44.108Z,100053.17
2018-12-31T23:53:54.938Z,100052.72
2018-12-31T23:56:05.742Z,100059.62
2018-12-31T23:58:16.632Z,100058.78
